Whitestone, NY (11357)

6:43 PM EST on February 06, 2016 (GMT -0500)
Cedar Grove Cemetery, Flushing | | Change Station
CLOSE
Current Station
Personal Weather Station
Location: New York, NY
Elevation: 49 ft
Nearby Weather Stations

Elev 49 ft 40.74 °N, 73.83 °W | Updated 4 minutes ago

Mostly Cloudy
Mostly Cloudy
37.0 °F
Feels Like 37 °F
N
2.7
Wind Variable Wind from SSE

Today
High -- | Low -- °F
--% Chance of Precip.
Yesterday
High -- | Low -- °F
Precip. -- in
Pressure 30.29 in
Visibility 10.0 miles
Clouds Mostly Cloudy 25000 ft
Windchill 37 °F
Dew Point 24 °F
Humidity 60%
Rainfall 0.02 in
Snow Depth Not available.
7:00 AM 5:18 PM
Waning Crescent, 3% visible
METAR KLGA 062251Z 22006KT 10SM BKN250 04/M08 A3029 RMK AO2 SLP256 T00441078 $
Pressure 30.29 in
Visibility 10.0 miles
Clouds Mostly Cloudy 25000 ft
Windchill 37 °F
Dew Point 24 °F
Humidity 60%
Rainfall 0.02 in
Snow Depth Not available.
7:00 AM 5:18 PM
Waning Crescent, 3% visible
METAR KLGA 062251Z 22006KT 10SM BKN250 04/M08 A3029 RMK AO2 SLP256 T00441078 $

10-Day Weather Forecast

Almanac

Astronomy

Feb. 06, 2016 Rise Set
Actual Time
Civil Twilight
Nautical Twilight
Astronomical Twilight
Moon
Length of Visible Light
Length of Day
Tomorrow will be .
, % of the Moon is Illuminated

Today's Extremes

State Highs State Lows

Community

WunderPhotos

Upload Photos

1,891,098 photos uploaded!

WunderBlog® & News

Nearby

Air Quality

  Air Quality AQ Index Pollutant
Not available.

Snow Depth

Station Depth Elevation

Earthquake Activity

City Distance Mag. Time & Date
Minimum magnitude displayed is 2.5.

Coastal Water Temperatures

Place Temperature

Stations

Nearby Weather Stations

Station Location Temp. Windchill Dew Point Humidity Wind Precip. Elev Updated Type
                   

Watches & Warnings

There are currently no watches in effect.